sensor_id;sensor_type;location;lat;lon;timestamp;P1;durP1;ratioP1;P2;durP2;ratioP2
52494;SDS011;38405;53.212;5.660;2022-09-09T00:05:28;15.82;;;9.88;;
52494;SDS011;38405;53.212;5.660;2022-09-09T00:07:53;15.90;;;10.15;;
52494;SDS011;38405;53.212;5.660;2022-09-09T00:10:34;19.33;;;11.27;;
52494;SDS011;38405;53.212;5.660;2022-09-09T00:20:55;17.70;;;10.45;;
52494;SDS011;38405;53.212;5.660;2022-09-09T00:23:28;18.60;;;10.95;;
52494;SDS011;38405;53.212;5.660;2022-09-09T00:26:04;23.45;;;11.20;;
52494;SDS011;38405;53.212;5.660;2022-09-09T00:28:46;24.98;;;12.50;;
52494;SDS011;38405;53.212;5.660;2022-09-09T00:31:25;27.92;;;13.02;;
52494;SDS011;38405;53.212;5.660;2022-09-09T00:33:53;23.98;;;13.38;;
52494;SDS011;38405;53.212;5.660;2022-09-09T00:36:21;20.02;;;11.68;;
52494;SDS011;38405;53.212;5.660;2022-09-09T00:38:57;21.50;;;11.60;;
52494;SDS011;38405;53.212;5.660;2022-09-09T00:41:29;21.95;;;12.18;;
52494;SDS011;38405;53.212;5.660;2022-09-09T00:44:03;27.65;;;11.85;;
52494;SDS011;38405;53.212;5.660;2022-09-09T00:46:49;19.45;;;11.63;;
52494;SDS011;38405;53.212;5.660;2022-09-09T00:49:37;28.33;;;12.40;;
52494;SDS011;38405;53.212;5.660;2022-09-09T00:55:00;26.45;;;12.73;;
52494;SDS011;38405;53.212;5.660;2022-09-09T00:57:41;23.30;;;12.18;;
52494;SDS011;38405;53.212;5.660;2022-09-09T01:02:48;21.25;;;11.98;;
52494;SDS011;38405;53.212;5.660;2022-09-09T01:05:22;23.08;;;12.00;;
52494;SDS011;38405;53.212;5.660;2022-09-09T01:08:00;27.83;;;12.68;;
52494;SDS011;38405;53.212;5.660;2022-09-09T01:13:31;25.33;;;12.48;;
52494;SDS011;38405;53.212;5.660;2022-09-09T01:16:01;24.23;;;14.38;;
52494;SDS011;38405;53.212;5.660;2022-09-09T01:18:34;26.13;;;12.98;;
52494;SDS011;38405;53.212;5.660;2022-09-09T01:23:44;19.02;;;11.95;;
52494;SDS011;38405;53.212;5.660;2022-09-09T01:26:37;30.00;;;12.65;;
52494;SDS011;38405;53.212;5.660;2022-09-09T01:29:09;25.77;;;12.88;;
52494;SDS011;38405;53.212;5.660;2022-09-09T01:34:13;19.20;;;11.55;;
52494;SDS011;38405;53.212;5.660;2022-09-09T01:36:57;21.92;;;10.85;;
52494;SDS011;38405;53.212;5.660;2022-09-09T01:39:37;31.55;;;11.93;;
52494;SDS011;38405;53.212;5.660;2022-09-09T01:42:05;22.45;;;10.82;;
52494;SDS011;38405;53.212;5.660;2022-09-09T01:44:32;18.65;;;10.80;;
52494;SDS011;38405;53.212;5.660;2022-09-09T01:46:59;21.33;;;11.07;;
52494;SDS011;38405;53.212;5.660;2022-09-09T01:49:25;23.52;;;11.07;;
52494;SDS011;38405;53.212;5.660;2022-09-09T01:51:51;25.40;;;11.40;;
52494;SDS011;38405;53.212;5.660;2022-09-09T01:54:19;19.83;;;10.02;;
52494;SDS011;38405;53.212;5.660;2022-09-09T01:59:44;19.42;;;10.93;;
52494;SDS011;38405;53.212;5.660;2022-09-09T02:02:11;24.15;;;10.32;;
52494;SDS011;38405;53.212;5.660;2022-09-09T02:07:41;21.20;;;10.93;;
52494;SDS011;38405;53.212;5.660;2022-09-09T02:10:14;21.77;;;11.02;;
52494;SDS011;38405;53.212;5.660;2022-09-09T02:12:46;20.23;;;10.65;;
52494;SDS011;38405;53.212;5.660;2022-09-09T02:15:21;20.63;;;10.63;;
52494;SDS011;38405;53.212;5.660;2022-09-09T02:17:55;18.10;;;10.35;;
52494;SDS011;38405;53.212;5.660;2022-09-09T02:20:23;22.25;;;10.90;;
52494;SDS011;38405;53.212;5.660;2022-09-09T02:22:51;19.50;;;10.98;;
52494;SDS011;38405;53.212;5.660;2022-09-09T02:25:19;18.25;;;9.63;;
52494;SDS011;38405;53.212;5.660;2022-09-09T02:27:49;26.63;;;11.35;;
52494;SDS011;38405;53.212;5.660;2022-09-09T02:30:16;23.50;;;11.73;;
52494;SDS011;38405;53.212;5.660;2022-09-09T02:32:43;19.63;;;11.50;;
52494;SDS011;38405;53.212;5.660;2022-09-09T02:35:12;25.55;;;11.70;;
52494;SDS011;38405;53.212;5.660;2022-09-09T02:37:40;24.92;;;11.30;;
52494;SDS011;38405;53.212;5.660;2022-09-09T02:40:08;26.65;;;10.88;;
52494;SDS011;38405;53.212;5.660;2022-09-09T02:42:39;26.70;;;11.55;;
52494;SDS011;38405;53.212;5.660;2022-09-09T02:45:06;21.95;;;11.90;;
52494;SDS011;38405;53.212;5.660;2022-09-09T02:47:41;19.40;;;11.95;;
52494;SDS011;38405;53.212;5.660;2022-09-09T02:50:18;28.58;;;12.50;;
52494;SDS011;38405;53.212;5.660;2022-09-09T02:58:12;23.52;;;12.00;;
52494;SDS011;38405;53.212;5.660;2022-09-09T03:00:42;24.17;;;12.63;;
52494;SDS011;38405;53.212;5.660;2022-09-09T03:03:10;27.50;;;12.13;;
52494;SDS011;38405;53.212;5.660;2022-09-09T03:05:35;23.58;;;12.77;;
52494;SDS011;38405;53.212;5.660;2022-09-09T03:08:02;23.30;;;11.68;;
52494;SDS011;38405;53.212;5.660;2022-09-09T03:10:28;30.00;;;13.32;;
52494;SDS011;38405;53.212;5.660;2022-09-09T03:12:54;29.02;;;13.30;;
52494;SDS011;38405;53.212;5.660;2022-09-09T03:15:20;23.38;;;12.27;;
52494;SDS011;38405;53.212;5.660;2022-09-09T03:17:46;23.77;;;13.13;;
52494;SDS011;38405;53.212;5.660;2022-09-09T03:20:12;26.45;;;12.95;;
52494;SDS011;38405;53.212;5.660;2022-09-09T03:22:38;26.92;;;13.13;;
52494;SDS011;38405;53.212;5.660;2022-09-09T03:25:04;31.85;;;13.23;;
52494;SDS011;38405;53.212;5.660;2022-09-09T03:27:30;31.58;;;14.10;;
52494;SDS011;38405;53.212;5.660;2022-09-09T03:29:56;32.88;;;13.75;;
52494;SDS011;38405;53.212;5.660;2022-09-09T03:32:22;26.45;;;12.95;;
52494;SDS011;38405;53.212;5.660;2022-09-09T03:34:50;28.00;;;13.52;;
52494;SDS011;38405;53.212;5.660;2022-09-09T03:37:17;28.35;;;14.50;;
52494;SDS011;38405;53.212;5.660;2022-09-09T03:39:43;28.80;;;14.45;;
52494;SDS011;38405;53.212;5.660;2022-09-09T03:42:09;29.08;;;15.30;;
52494;SDS011;38405;53.212;5.660;2022-09-09T03:44:37;29.75;;;14.00;;
52494;SDS011;38405;53.212;5.660;2022-09-09T03:47:03;36.28;;;14.35;;
52494;SDS011;38405;53.212;5.660;2022-09-09T03:49:28;29.55;;;14.68;;
52494;SDS011;38405;53.212;5.660;2022-09-09T03:51:55;23.35;;;13.43;;
52494;SDS011;38405;53.212;5.660;2022-09-09T03:54:23;26.05;;;12.23;;
52494;SDS011;38405;53.212;5.660;2022-09-09T03:56:49;22.67;;;11.95;;
52494;SDS011;38405;53.212;5.660;2022-09-09T03:59:14;26.85;;;12.55;;
52494;SDS011;38405;53.212;5.660;2022-09-09T04:01:40;27.30;;;12.13;;
52494;SDS011;38405;53.212;5.660;2022-09-09T04:04:05;31.02;;;13.15;;
52494;SDS011;38405;53.212;5.660;2022-09-09T04:06:32;21.20;;;12.00;;
52494;SDS011;38405;53.212;5.660;2022-09-09T04:08:58;16.60;;;10.68;;
52494;SDS011;38405;53.212;5.660;2022-09-09T04:11:23;21.00;;;11.40;;
52494;SDS011;38405;53.212;5.660;2022-09-09T04:13:49;18.50;;;9.60;;
52494;SDS011;38405;53.212;5.660;2022-09-09T04:16:15;16.45;;;9.63;;
52494;SDS011;38405;53.212;5.660;2022-09-09T04:18:41;19.25;;;9.35;;
52494;SDS011;38405;53.212;5.660;2022-09-09T04:21:07;15.77;;;9.60;;
52494;SDS011;38405;53.212;5.660;2022-09-09T04:23:35;15.88;;;8.57;;
52494;SDS011;38405;53.212;5.660;2022-09-09T04:26:01;20.80;;;8.77;;
52494;SDS011;38405;53.212;5.660;2022-09-09T04:28:29;19.08;;;9.48;;
52494;SDS011;38405;53.212;5.660;2022-09-09T04:30:57;13.43;;;8.60;;
52494;SDS011;38405;53.212;5.660;2022-09-09T04:33:28;17.67;;;8.27;;
52494;SDS011;38405;53.212;5.660;2022-09-09T04:35:54;16.52;;;8.50;;
52494;SDS011;38405;53.212;5.660;2022-09-09T04:38:20;16.63;;;7.82;;
52494;SDS011;38405;53.212;5.660;2022-09-09T04:40:48;19.40;;;8.27;;
52494;SDS011;38405;53.212;5.660;2022-09-09T04:43:16;12.57;;;6.72;;
52494;SDS011;38405;53.212;5.660;2022-09-09T04:45:44;18.40;;;8.50;;
52494;SDS011;38405;53.212;5.660;2022-09-09T04:48:12;17.70;;;8.45;;
52494;SDS011;38405;53.212;5.660;2022-09-09T04:50:38;14.20;;;7.80;;
52494;SDS011;38405;53.212;5.660;2022-09-09T04:53:05;11.75;;;7.43;;
52494;SDS011;38405;53.212;5.660;2022-09-09T04:55:31;20.58;;;7.97;;
52494;SDS011;38405;53.212;5.660;2022-09-09T04:58:02;15.55;;;7.63;;
52494;SDS011;38405;53.212;5.660;2022-09-09T05:00:32;13.48;;;7.85;;
52494;SDS011;38405;53.212;5.660;2022-09-09T05:03:02;20.50;;;8.00;;
52494;SDS011;38405;53.212;5.660;2022-09-09T05:05:29;10.27;;;7.53;;
52494;SDS011;38405;53.212;5.660;2022-09-09T05:08:00;15.27;;;7.45;;
52494;SDS011;38405;53.212;5.660;2022-09-09T05:10:29;16.02;;;8.02;;
52494;SDS011;38405;53.212;5.660;2022-09-09T05:12:55;16.30;;;8.50;;
52494;SDS011;38405;53.212;5.660;2022-09-09T05:15:21;15.00;;;8.43;;
52494;SDS011;38405;53.212;5.660;2022-09-09T05:17:47;15.45;;;7.40;;
52494;SDS011;38405;53.212;5.660;2022-09-09T05:20:12;19.48;;;8.27;;
52494;SDS011;38405;53.212;5.660;2022-09-09T05:22:38;13.93;;;7.03;;
52494;SDS011;38405;53.212;5.660;2022-09-09T05:25:04;16.67;;;8.27;;
52494;SDS011;38405;53.212;5.660;2022-09-09T05:27:29;17.10;;;7.95;;
52494;SDS011;38405;53.212;5.660;2022-09-09T05:29:58;16.05;;;8.50;;
52494;SDS011;38405;53.212;5.660;2022-09-09T05:32:23;18.33;;;8.48;;
52494;SDS011;38405;53.212;5.660;2022-09-09T05:34:49;19.70;;;8.48;;
52494;SDS011;38405;53.212;5.660;2022-09-09T05:37:15;17.88;;;9.00;;
52494;SDS011;38405;53.212;5.660;2022-09-09T05:39:41;16.50;;;8.30;;
52494;SDS011;38405;53.212;5.660;2022-09-09T05:42:07;20.17;;;8.95;;
52494;SDS011;38405;53.212;5.660;2022-09-09T05:44:33;17.88;;;8.43;;
52494;SDS011;38405;53.212;5.660;2022-09-09T05:46:58;18.90;;;9.75;;
52494;SDS011;38405;53.212;5.660;2022-09-09T05:49:24;17.75;;;8.52;;
52494;SDS011;38405;53.212;5.660;2022-09-09T05:51:50;19.38;;;9.40;;
52494;SDS011;38405;53.212;5.660;2022-09-09T05:54:16;16.20;;;8.55;;
52494;SDS011;38405;53.212;5.660;2022-09-09T05:56:42;16.77;;;9.45;;
52494;SDS011;38405;53.212;5.660;2022-09-09T05:59:07;17.88;;;9.35;;
52494;SDS011;38405;53.212;5.660;2022-09-09T06:01:35;19.50;;;10.40;;
52494;SDS011;38405;53.212;5.660;2022-09-09T06:04:05;15.65;;;9.57;;
52494;SDS011;38405;53.212;5.660;2022-09-09T06:06:33;23.75;;;11.63;;
52494;SDS011;38405;53.212;5.660;2022-09-09T06:09:05;18.05;;;10.85;;
52494;SDS011;38405;53.212;5.660;2022-09-09T06:11:34;18.92;;;10.57;;
52494;SDS011;38405;53.212;5.660;2022-09-09T06:14:02;22.85;;;11.20;;
52494;SDS011;38405;53.212;5.660;2022-09-09T06:16:28;19.40;;;11.50;;
52494;SDS011;38405;53.212;5.660;2022-09-09T06:18:55;15.23;;;9.55;;
52494;SDS011;38405;53.212;5.660;2022-09-09T06:21:27;15.35;;;10.65;;
52494;SDS011;38405;53.212;5.660;2022-09-09T06:23:58;18.38;;;10.50;;
52494;SDS011;38405;53.212;5.660;2022-09-09T06:26:28;15.50;;;10.20;;
52494;SDS011;38405;53.212;5.660;2022-09-09T06:28:59;16.73;;;9.85;;
52494;SDS011;38405;53.212;5.660;2022-09-09T06:31:26;16.23;;;10.02;;
52494;SDS011;38405;53.212;5.660;2022-09-09T06:33:55;19.15;;;10.23;;
52494;SDS011;38405;53.212;5.660;2022-09-09T06:36:23;12.65;;;9.70;;
52494;SDS011;38405;53.212;5.660;2022-09-09T06:38:51;14.65;;;10.20;;
52494;SDS011;38405;53.212;5.660;2022-09-09T06:41:17;16.02;;;10.70;;
52494;SDS011;38405;53.212;5.660;2022-09-09T06:43:44;16.02;;;11.00;;
52494;SDS011;38405;53.212;5.660;2022-09-09T06:46:11;15.50;;;10.38;;
52494;SDS011;38405;53.212;5.660;2022-09-09T06:48:42;13.38;;;10.10;;
52494;SDS011;38405;53.212;5.660;2022-09-09T06:51:16;17.33;;;10.38;;
52494;SDS011;38405;53.212;5.660;2022-09-09T06:53:44;15.63;;;8.25;;
52494;SDS011;38405;53.212;5.660;2022-09-09T06:58:36;11.50;;;8.45;;
52494;SDS011;38405;53.212;5.660;2022-09-09T07:01:05;11.70;;;8.23;;
52494;SDS011;38405;53.212;5.660;2022-09-09T07:03:32;10.98;;;8.15;;
52494;SDS011;38405;53.212;5.660;2022-09-09T07:05:58;12.43;;;7.70;;
52494;SDS011;38405;53.212;5.660;2022-09-09T07:08:24;10.48;;;7.72;;
52494;SDS011;38405;53.212;5.660;2022-09-09T07:10:51;9.27;;;7.00;;
52494;SDS011;38405;53.212;5.660;2022-09-09T07:13:23;9.13;;;7.35;;
52494;SDS011;38405;53.212;5.660;2022-09-09T07:15:50;10.30;;;7.25;;
52494;SDS011;38405;53.212;5.660;2022-09-09T07:18:17;10.27;;;6.60;;
52494;SDS011;38405;53.212;5.660;2022-09-09T07:20:43;14.30;;;7.22;;
52494;SDS011;38405;53.212;5.660;2022-09-09T07:23:17;10.77;;;6.43;;
52494;SDS011;38405;53.212;5.660;2022-09-09T07:25:46;10.02;;;6.85;;
52494;SDS011;38405;53.212;5.660;2022-09-09T07:28:12;12.38;;;7.22;;
52494;SDS011;38405;53.212;5.660;2022-09-09T07:30:38;10.30;;;6.60;;
52494;SDS011;38405;53.212;5.660;2022-09-09T07:33:05;8.88;;;6.65;;
52494;SDS011;38405;53.212;5.660;2022-09-09T07:35:30;7.05;;;6.22;;
52494;SDS011;38405;53.212;5.660;2022-09-09T07:37:56;11.13;;;6.60;;
52494;SDS011;38405;53.212;5.660;2022-09-09T07:40:22;6.32;;;5.70;;
52494;SDS011;38405;53.212;5.660;2022-09-09T07:42:48;9.52;;;5.70;;
52494;SDS011;38405;53.212;5.660;2022-09-09T07:45:14;8.68;;;5.78;;
52494;SDS011;38405;53.212;5.660;2022-09-09T07:47:40;5.97;;;5.28;;
52494;SDS011;38405;53.212;5.660;2022-09-09T07:50:07;6.38;;;5.10;;
52494;SDS011;38405;53.212;5.660;2022-09-09T07:52:34;9.98;;;5.35;;
52494;SDS011;38405;53.212;5.660;2022-09-09T07:55:00;6.72;;;5.45;;
52494;SDS011;38405;53.212;5.660;2022-09-09T07:57:28;5.90;;;4.88;;
52494;SDS011;38405;53.212;5.660;2022-09-09T07:59:55;9.10;;;5.65;;
52494;SDS011;38405;53.212;5.660;2022-09-09T08:02:22;6.82;;;5.28;;
52494;SDS011;38405;53.212;5.660;2022-09-09T08:04:48;7.60;;;5.10;;
52494;SDS011;38405;53.212;5.660;2022-09-09T08:07:14;10.13;;;5.25;;
52494;SDS011;38405;53.212;5.660;2022-09-09T08:09:41;7.72;;;4.82;;
52494;SDS011;38405;53.212;5.660;2022-09-09T08:12:07;8.35;;;5.18;;
52494;SDS011;38405;53.212;5.660;2022-09-09T08:14:33;7.97;;;4.85;;
52494;SDS011;38405;53.212;5.660;2022-09-09T08:16:59;8.07;;;4.43;;
52494;SDS011;38405;53.212;5.660;2022-09-09T08:19:25;7.15;;;4.40;;
52494;SDS011;38405;53.212;5.660;2022-09-09T08:21:51;6.40;;;4.22;;
52494;SDS011;38405;53.212;5.660;2022-09-09T08:24:17;5.13;;;4.10;;
52494;SDS011;38405;53.212;5.660;2022-09-09T08:26:45;5.63;;;4.47;;
52494;SDS011;38405;53.212;5.660;2022-09-09T08:29:14;7.10;;;4.18;;
52494;SDS011;38405;53.212;5.660;2022-09-09T08:34:07;8.57;;;4.43;;
52494;SDS011;38405;53.212;5.660;2022-09-09T08:36:37;28.92;;;4.32;;
52494;SDS011;38405;53.212;5.660;2022-09-09T08:39:08;6.28;;;3.33;;
52494;SDS011;38405;53.212;5.660;2022-09-09T08:52:42;7.60;;;3.35;;
52494;SDS011;38405;53.212;5.660;2022-09-09T08:55:22;7.28;;;3.92;;
52494;SDS011;38405;53.212;5.660;2022-09-09T08:57:59;11.48;;;3.78;;
52494;SDS011;38405;53.212;5.660;2022-09-09T09:00:40;8.43;;;3.90;;
52494;SDS011;38405;53.212;5.660;2022-09-09T09:03:34;9.18;;;3.63;;
52494;SDS011;38405;53.212;5.660;2022-09-09T09:11:54;6.97;;;3.28;;
52494;SDS011;38405;53.212;5.660;2022-09-09T09:14:26;9.68;;;3.72;;
52494;SDS011;38405;53.212;5.660;2022-09-09T09:17:02;7.05;;;3.50;;
52494;SDS011;38405;53.212;5.660;2022-09-09T09:19:29;11.10;;;3.92;;
52494;SDS011;38405;53.212;5.660;2022-09-09T09:29:58;10.20;;;3.80;;
52494;SDS011;38405;53.212;5.660;2022-09-09T09:32:25;7.30;;;3.70;;
52494;SDS011;38405;53.212;5.660;2022-09-09T09:34:55;6.20;;;3.60;;
52494;SDS011;38405;53.212;5.660;2022-09-09T09:37:30;7.50;;;3.28;;
52494;SDS011;38405;53.212;5.660;2022-09-09T09:40:16;8.13;;;3.80;;
52494;SDS011;38405;53.212;5.660;2022-09-09T09:42:53;8.38;;;3.40;;
52494;SDS011;38405;53.212;5.660;2022-09-09T09:45:29;8.95;;;3.70;;
52494;SDS011;38405;53.212;5.660;2022-09-09T09:48:09;9.60;;;3.30;;
52494;SDS011;38405;53.212;5.660;2022-09-09T09:50:39;8.20;;;3.03;;
52494;SDS011;38405;53.212;5.660;2022-09-09T09:53:19;7.95;;;2.40;;
52494;SDS011;38405;53.212;5.660;2022-09-09T09:55:55;9.05;;;2.90;;
52494;SDS011;38405;53.212;5.660;2022-09-09T10:01:28;6.75;;;2.70;;
52494;SDS011;38405;53.212;5.660;2022-09-09T10:04:14;10.13;;;2.20;;
52494;SDS011;38405;53.212;5.660;2022-09-09T10:06:41;8.82;;;2.92;;
52494;SDS011;38405;53.212;5.660;2022-09-09T10:17:06;5.95;;;2.13;;
52494;SDS011;38405;53.212;5.660;2022-09-09T10:19:35;5.63;;;2.50;;
52494;SDS011;38405;53.212;5.660;2022-09-09T10:22:25;5.78;;;2.10;;
52494;SDS011;38405;53.212;5.660;2022-09-09T10:33:34;5.72;;;2.47;;
52494;SDS011;38405;53.212;5.660;2022-09-09T10:36:13;13.15;;;2.13;;
52494;SDS011;38405;53.212;5.660;2022-09-09T10:38:49;6.65;;;1.92;;
52494;SDS011;38405;53.212;5.660;2022-09-09T10:41:19;6.35;;;2.50;;
52494;SDS011;38405;53.212;5.660;2022-09-09T10:53:01;12.25;;;2.35;;
52494;SDS011;38405;53.212;5.660;2022-09-09T10:55:40;7.78;;;2.65;;
52494;SDS011;38405;53.212;5.660;2022-09-09T10:58:10;9.40;;;2.10;;
52494;SDS011;38405;53.212;5.660;2022-09-09T11:00:44;7.35;;;2.50;;
52494;SDS011;38405;53.212;5.660;2022-09-09T11:03:17;6.93;;;2.65;;
52494;SDS011;38405;53.212;5.660;2022-09-09T11:05:47;16.92;;;2.60;;
52494;SDS011;38405;53.212;5.660;2022-09-09T11:08:19;8.80;;;2.30;;
52494;SDS011;38405;53.212;5.660;2022-09-09T11:16:52;6.53;;;2.28;;
52494;SDS011;38405;53.212;5.660;2022-09-09T11:24:52;9.98;;;2.10;;
52494;SDS011;38405;53.212;5.660;2022-09-09T11:27:41;9.45;;;2.38;;
52494;SDS011;38405;53.212;5.660;2022-09-09T11:35:43;5.53;;;2.28;;
52494;SDS011;38405;53.212;5.660;2022-09-09T11:38:27;5.32;;;2.40;;
52494;SDS011;38405;53.212;5.660;2022-09-09T11:40:57;6.32;;;2.55;;
52494;SDS011;38405;53.212;5.660;2022-09-09T11:43:27;7.70;;;1.90;;
52494;SDS011;38405;53.212;5.660;2022-09-09T11:45:58;8.45;;;2.20;;
52494;SDS011;38405;53.212;5.660;2022-09-09T11:51:25;10.07;;;2.35;;
52494;SDS011;38405;53.212;5.660;2022-09-09T11:53:54;6.32;;;1.85;;
52494;SDS011;38405;53.212;5.660;2022-09-09T12:01:29;7.25;;;2.20;;
52494;SDS011;38405;53.212;5.660;2022-09-09T12:09:44;5.47;;;2.08;;
52494;SDS011;38405;53.212;5.660;2022-09-09T12:19:40;7.57;;;2.00;;
52494;SDS011;38405;53.212;5.660;2022-09-09T12:27:27;7.57;;;2.30;;
52494;SDS011;38405;53.212;5.660;2022-09-09T12:30:08;3.70;;;1.90;;
52494;SDS011;38405;53.212;5.660;2022-09-09T12:32:42;11.40;;;2.20;;
52494;SDS011;38405;53.212;5.660;2022-09-09T12:37:38;4.85;;;2.03;;
52494;SDS011;38405;53.212;5.660;2022-09-09T12:45:26;8.05;;;2.00;;
52494;SDS011;38405;53.212;5.660;2022-09-09T12:47:54;5.25;;;2.08;;
52494;SDS011;38405;53.212;5.660;2022-09-09T12:51:05;5.50;;;1.80;;
52494;SDS011;38405;53.212;5.660;2022-09-09T12:55:57;5.78;;;1.88;;
52494;SDS011;38405;53.212;5.660;2022-09-09T12:58:25;6.30;;;2.15;;
52494;SDS011;38405;53.212;5.660;2022-09-09T13:00:54;7.20;;;2.10;;
52494;SDS011;38405;53.212;5.660;2022-09-09T13:03:21;7.13;;;1.92;;
52494;SDS011;38405;53.212;5.660;2022-09-09T13:05:47;6.88;;;2.10;;
52494;SDS011;38405;53.212;5.660;2022-09-09T13:08:14;10.55;;;2.40;;
52494;SDS011;38405;53.212;5.660;2022-09-09T13:13:36;8.70;;;1.95;;
52494;SDS011;38405;53.212;5.660;2022-09-09T13:16:06;10.70;;;2.00;;
52494;SDS011;38405;53.212;5.660;2022-09-09T13:18:44;14.57;;;2.60;;
52494;SDS011;38405;53.212;5.660;2022-09-09T13:21:09;8.93;;;2.75;;
52494;SDS011;38405;53.212;5.660;2022-09-09T13:23:36;6.28;;;2.28;;
52494;SDS011;38405;53.212;5.660;2022-09-09T13:26:06;5.55;;;1.92;;
52494;SDS011;38405;53.212;5.660;2022-09-09T13:28:54;4.07;;;1.60;;
52494;SDS011;38405;53.212;5.660;2022-09-09T13:31:22;6.53;;;1.67;;
52494;SDS011;38405;53.212;5.660;2022-09-09T13:33:52;6.85;;;2.30;;
52494;SDS011;38405;53.212;5.660;2022-09-09T13:36:27;5.35;;;1.70;;
52494;SDS011;38405;53.212;5.660;2022-09-09T13:38:55;4.38;;;2.00;;
52494;SDS011;38405;53.212;5.660;2022-09-09T13:41:25;3.70;;;1.77;;
52494;SDS011;38405;53.212;5.660;2022-09-09T13:44:01;7.70;;;2.30;;
52494;SDS011;38405;53.212;5.660;2022-09-09T13:46:31;28.27;;;2.60;;
52494;SDS011;38405;53.212;5.660;2022-09-09T13:54:11;3.03;;;1.10;;
52494;SDS011;38405;53.212;5.660;2022-09-09T13:56:38;1.02;;;0.85;;
52494;SDS011;38405;53.212;5.660;2022-09-09T13:59:05;5.00;;;1.30;;
52494;SDS011;38405;53.212;5.660;2022-09-09T14:01:34;3.53;;;1.95;;
52494;SDS011;38405;53.212;5.660;2022-09-09T14:04:00;4.90;;;2.30;;
52494;SDS011;38405;53.212;5.660;2022-09-09T14:06:25;7.13;;;2.67;;
52494;SDS011;38405;53.212;5.660;2022-09-09T14:08:52;6.07;;;2.85;;
52494;SDS011;38405;53.212;5.660;2022-09-09T14:11:19;8.32;;;3.20;;
52494;SDS011;38405;53.212;5.660;2022-09-09T14:13:46;5.40;;;2.42;;
52494;SDS011;38405;53.212;5.660;2022-09-09T14:16:12;4.20;;;2.60;;
52494;SDS011;38405;53.212;5.660;2022-09-09T14:18:38;9.02;;;2.70;;
52494;SDS011;38405;53.212;5.660;2022-09-09T14:21:04;7.75;;;2.53;;
52494;SDS011;38405;53.212;5.660;2022-09-09T14:23:30;5.47;;;2.75;;
52494;SDS011;38405;53.212;5.660;2022-09-09T14:25:57;6.03;;;2.53;;
52494;SDS011;38405;53.212;5.660;2022-09-09T14:28:23;6.13;;;2.30;;
52494;SDS011;38405;53.212;5.660;2022-09-09T14:30:48;5.13;;;2.30;;
52494;SDS011;38405;53.212;5.660;2022-09-09T14:33:15;4.10;;;2.30;;
52494;SDS011;38405;53.212;5.660;2022-09-09T14:35:41;3.53;;;1.80;;
52494;SDS011;38405;53.212;5.660;2022-09-09T14:38:07;3.53;;;2.17;;
52494;SDS011;38405;53.212;5.660;2022-09-09T14:40:34;5.82;;;2.10;;
52494;SDS011;38405;53.212;5.660;2022-09-09T14:43:01;4.57;;;1.90;;
52494;SDS011;38405;53.212;5.660;2022-09-09T14:45:27;4.22;;;1.70;;
52494;SDS011;38405;53.212;5.660;2022-09-09T14:47:53;3.58;;;1.90;;
52494;SDS011;38405;53.212;5.660;2022-09-09T14:50:19;5.28;;;2.00;;
52494;SDS011;38405;53.212;5.660;2022-09-09T14:52:46;2.47;;;1.55;;
52494;SDS011;38405;53.212;5.660;2022-09-09T14:55:12;4.30;;;2.00;;
52494;SDS011;38405;53.212;5.660;2022-09-09T14:57:38;4.50;;;1.98;;
52494;SDS011;38405;53.212;5.660;2022-09-09T15:00:04;3.63;;;2.17;;
52494;SDS011;38405;53.212;5.660;2022-09-09T15:02:31;2.50;;;1.80;;
52494;SDS011;38405;53.212;5.660;2022-09-09T15:04:57;3.80;;;2.00;;
52494;SDS011;38405;53.212;5.660;2022-09-09T15:07:23;2.13;;;1.83;;
52494;SDS011;38405;53.212;5.660;2022-09-09T15:09:50;3.58;;;2.10;;
52494;SDS011;38405;53.212;5.660;2022-09-09T15:12:17;5.50;;;2.20;;
52494;SDS011;38405;53.212;5.660;2022-09-09T15:14:44;2.38;;;1.40;;
52494;SDS011;38405;53.212;5.660;2022-09-09T15:17:10;2.22;;;1.60;;
52494;SDS011;38405;53.212;5.660;2022-09-09T15:19:36;2.72;;;1.40;;
52494;SDS011;38405;53.212;5.660;2022-09-09T15:22:03;1.88;;;1.48;;
52494;SDS011;38405;53.212;5.660;2022-09-09T15:24:32;1.30;;;1.20;;
52494;SDS011;38405;53.212;5.660;2022-09-09T15:26:59;3.00;;;1.55;;
52494;SDS011;38405;53.212;5.660;2022-09-09T15:29:25;3.30;;;1.70;;
52494;SDS011;38405;53.212;5.660;2022-09-09T15:31:52;4.95;;;2.13;;
52494;SDS011;38405;53.212;5.660;2022-09-09T15:34:19;3.25;;;1.90;;
52494;SDS011;38405;53.212;5.660;2022-09-09T15:36:45;3.90;;;2.47;;
52494;SDS011;38405;53.212;5.660;2022-09-09T15:39:12;4.97;;;2.25;;
52494;SDS011;38405;53.212;5.660;2022-09-09T15:41:44;4.35;;;2.25;;
52494;SDS011;38405;53.212;5.660;2022-09-09T15:44:10;2.92;;;1.70;;
52494;SDS011;38405;53.212;5.660;2022-09-09T15:46:49;4.57;;;1.65;;
52494;SDS011;38405;53.212;5.660;2022-09-09T15:49:19;5.55;;;1.75;;
52494;SDS011;38405;53.212;5.660;2022-09-09T15:51:52;3.72;;;1.90;;
52494;SDS011;38405;53.212;5.660;2022-09-09T15:54:21;2.63;;;1.65;;
52494;SDS011;38405;53.212;5.660;2022-09-09T15:56:54;5.55;;;2.38;;
52494;SDS011;38405;53.212;5.660;2022-09-09T15:59:22;5.45;;;2.75;;
52494;SDS011;38405;53.212;5.660;2022-09-09T16:01:48;3.70;;;2.30;;
52494;SDS011;38405;53.212;5.660;2022-09-09T16:04:16;6.00;;;3.05;;
52494;SDS011;38405;53.212;5.660;2022-09-09T16:06:48;8.55;;;2.65;;
52494;SDS011;38405;53.212;5.660;2022-09-09T16:09:19;6.80;;;3.00;;
52494;SDS011;38405;53.212;5.660;2022-09-09T16:11:45;8.52;;;2.70;;
52494;SDS011;38405;53.212;5.660;2022-09-09T16:14:12;5.25;;;2.75;;
52494;SDS011;38405;53.212;5.660;2022-09-09T16:16:40;5.97;;;2.95;;
52494;SDS011;38405;53.212;5.660;2022-09-09T16:19:07;5.32;;;2.63;;
52494;SDS011;38405;53.212;5.660;2022-09-09T16:21:45;5.05;;;1.95;;
52494;SDS011;38405;53.212;5.660;2022-09-09T16:24:13;6.28;;;2.05;;
52494;SDS011;38405;53.212;5.660;2022-09-09T16:26:41;2.83;;;1.70;;
52494;SDS011;38405;53.212;5.660;2022-09-09T16:29:15;3.35;;;1.40;;
52494;SDS011;38405;53.212;5.660;2022-09-09T16:31:42;5.47;;;1.80;;
52494;SDS011;38405;53.212;5.660;2022-09-09T16:34:09;3.80;;;1.50;;
52494;SDS011;38405;53.212;5.660;2022-09-09T16:36:35;4.25;;;1.42;;
52494;SDS011;38405;53.212;5.660;2022-09-09T16:39:05;2.33;;;0.98;;
52494;SDS011;38405;53.212;5.660;2022-09-09T16:41:33;3.35;;;1.58;;
52494;SDS011;38405;53.212;5.660;2022-09-09T16:44:01;1.10;;;1.00;;
52494;SDS011;38405;53.212;5.660;2022-09-09T16:46:29;2.97;;;1.30;;
52494;SDS011;38405;53.212;5.660;2022-09-09T16:48:56;4.57;;;1.38;;
52494;SDS011;38405;53.212;5.660;2022-09-09T16:51:30;2.78;;;1.25;;
52494;SDS011;38405;53.212;5.660;2022-09-09T16:54:01;2.65;;;1.20;;
52494;SDS011;38405;53.212;5.660;2022-09-09T16:56:30;1.05;;;0.90;;
52494;SDS011;38405;53.212;5.660;2022-09-09T16:59:00;2.70;;;1.20;;
52494;SDS011;38405;53.212;5.660;2022-09-09T17:01:28;3.58;;;1.10;;
52494;SDS011;38405;53.212;5.660;2022-09-09T17:03:57;3.08;;;1.30;;
52494;SDS011;38405;53.212;5.660;2022-09-09T17:06:26;4.28;;;1.27;;
52494;SDS011;38405;53.212;5.660;2022-09-09T17:08:58;2.40;;;1.40;;
52494;SDS011;38405;53.212;5.660;2022-09-09T17:11:26;4.97;;;2.05;;
52494;SDS011;38405;53.212;5.660;2022-09-09T17:13:53;3.55;;;2.13;;
52494;SDS011;38405;53.212;5.660;2022-09-09T17:16:20;4.47;;;2.20;;
52494;SDS011;38405;53.212;5.660;2022-09-09T17:18:47;5.53;;;2.40;;
52494;SDS011;38405;53.212;5.660;2022-09-09T17:21:17;2.90;;;1.98;;
52494;SDS011;38405;53.212;5.660;2022-09-09T17:23:45;4.05;;;2.47;;
52494;SDS011;38405;53.212;5.660;2022-09-09T17:26:12;6.05;;;2.38;;
52494;SDS011;38405;53.212;5.660;2022-09-09T17:28:40;4.10;;;2.20;;